sensor_id;sensor_type;location;lat;lon;timestamp;P1;durP1;ratioP1;P2;durP2;ratioP2
12445;SDS011;6287;50.984;7.022;2023-12-20T00:00:17;10.27;;;8.13;;
12445;SDS011;6287;50.984;7.022;2023-12-20T00:02:42;10.43;;;7.40;;
12445;SDS011;6287;50.984;7.022;2023-12-20T00:05:12;9.30;;;6.50;;
12445;SDS011;6287;50.984;7.022;2023-12-20T00:07:42;7.93;;;6.27;;
12445;SDS011;6287;50.984;7.022;2023-12-20T00:10:10;7.93;;;6.47;;
12445;SDS011;6287;50.984;7.022;2023-12-20T00:12:37;8.90;;;6.90;;
12445;SDS011;6287;50.984;7.022;2023-12-20T00:15:06;8.30;;;6.20;;
12445;SDS011;6287;50.984;7.022;2023-12-20T00:17:34;13.03;;;7.10;;
12445;SDS011;6287;50.984;7.022;2023-12-20T00:20:00;8.47;;;6.10;;
12445;SDS011;6287;50.984;7.022;2023-12-20T00:22:25;10.13;;;7.07;;
12445;SDS011;6287;50.984;7.022;2023-12-20T00:24:55;9.47;;;7.10;;
12445;SDS011;6287;50.984;7.022;2023-12-20T00:27:21;8.00;;;6.53;;
12445;SDS011;6287;50.984;7.022;2023-12-20T00:29:49;9.43;;;6.90;;
12445;SDS011;6287;50.984;7.022;2023-12-20T00:32:17;11.13;;;7.13;;
12445;SDS011;6287;50.984;7.022;2023-12-20T00:34:43;10.13;;;6.70;;
12445;SDS011;6287;50.984;7.022;2023-12-20T00:37:09;9.33;;;6.63;;
12445;SDS011;6287;50.984;7.022;2023-12-20T00:39:34;7.67;;;5.40;;
12445;SDS011;6287;50.984;7.022;2023-12-20T00:42:00;7.17;;;4.83;;
12445;SDS011;6287;50.984;7.022;2023-12-20T00:44:26;7.77;;;4.70;;
12445;SDS011;6287;50.984;7.022;2023-12-20T00:46:54;6.13;;;4.30;;
12445;SDS011;6287;50.984;7.022;2023-12-20T00:49:20;6.73;;;5.00;;
12445;SDS011;6287;50.984;7.022;2023-12-20T00:51:45;7.57;;;4.43;;
12445;SDS011;6287;50.984;7.022;2023-12-20T00:54:12;7.63;;;4.23;;
12445;SDS011;6287;50.984;7.022;2023-12-20T00:56:38;7.17;;;4.83;;
12445;SDS011;6287;50.984;7.022;2023-12-20T00:59:04;6.50;;;4.77;;
12445;SDS011;6287;50.984;7.022;2023-12-20T01:01:32;7.60;;;4.90;;
12445;SDS011;6287;50.984;7.022;2023-12-20T01:03:58;7.27;;;5.33;;
12445;SDS011;6287;50.984;7.022;2023-12-20T01:06:26;7.03;;;4.77;;
12445;SDS011;6287;50.984;7.022;2023-12-20T01:08:51;8.77;;;5.10;;
12445;SDS011;6287;50.984;7.022;2023-12-20T01:11:17;6.83;;;4.83;;
12445;SDS011;6287;50.984;7.022;2023-12-20T01:13:45;5.83;;;3.93;;
12445;SDS011;6287;50.984;7.022;2023-12-20T01:16:13;7.10;;;4.33;;
12445;SDS011;6287;50.984;7.022;2023-12-20T01:18:41;6.87;;;4.67;;
12445;SDS011;6287;50.984;7.022;2023-12-20T01:21:07;8.10;;;3.97;;
12445;SDS011;6287;50.984;7.022;2023-12-20T01:23:35;5.00;;;3.60;;
12445;SDS011;6287;50.984;7.022;2023-12-20T01:26:03;4.90;;;3.50;;
12445;SDS011;6287;50.984;7.022;2023-12-20T01:28:30;7.27;;;4.07;;
12445;SDS011;6287;50.984;7.022;2023-12-20T01:30:58;6.53;;;3.37;;
12445;SDS011;6287;50.984;7.022;2023-12-20T01:33:26;5.67;;;3.80;;
12445;SDS011;6287;50.984;7.022;2023-12-20T01:35:54;7.03;;;3.10;;
12445;SDS011;6287;50.984;7.022;2023-12-20T01:38:22;4.67;;;3.13;;
12445;SDS011;6287;50.984;7.022;2023-12-20T01:40:50;6.53;;;3.67;;
12445;SDS011;6287;50.984;7.022;2023-12-20T01:43:16;6.27;;;3.60;;
12445;SDS011;6287;50.984;7.022;2023-12-20T01:45:42;6.07;;;4.17;;
12445;SDS011;6287;50.984;7.022;2023-12-20T01:48:08;10.37;;;4.70;;
12445;SDS011;6287;50.984;7.022;2023-12-20T01:50:35;9.23;;;5.10;;
12445;SDS011;6287;50.984;7.022;2023-12-20T01:53:03;9.23;;;4.50;;
12445;SDS011;6287;50.984;7.022;2023-12-20T01:55:31;11.07;;;4.90;;
12445;SDS011;6287;50.984;7.022;2023-12-20T01:58:00;12.27;;;4.83;;
12445;SDS011;6287;50.984;7.022;2023-12-20T02:00:26;9.23;;;4.77;;
12445;SDS011;6287;50.984;7.022;2023-12-20T02:02:54;10.33;;;5.50;;
12445;SDS011;6287;50.984;7.022;2023-12-20T02:05:26;11.10;;;6.03;;
12445;SDS011;6287;50.984;7.022;2023-12-20T02:07:53;11.87;;;6.30;;
12445;SDS011;6287;50.984;7.022;2023-12-20T02:10:18;12.53;;;5.70;;
12445;SDS011;6287;50.984;7.022;2023-12-20T02:12:46;8.30;;;5.57;;
12445;SDS011;6287;50.984;7.022;2023-12-20T02:15:15;9.27;;;5.57;;
12445;SDS011;6287;50.984;7.022;2023-12-20T02:17:41;9.10;;;5.50;;
12445;SDS011;6287;50.984;7.022;2023-12-20T02:20:10;9.40;;;6.00;;
12445;SDS011;6287;50.984;7.022;2023-12-20T02:22:36;11.03;;;5.77;;
12445;SDS011;6287;50.984;7.022;2023-12-20T02:25:01;8.37;;;4.83;;
12445;SDS011;6287;50.984;7.022;2023-12-20T02:27:27;7.53;;;4.97;;
12445;SDS011;6287;50.984;7.022;2023-12-20T02:29:54;10.60;;;4.73;;
12445;SDS011;6287;50.984;7.022;2023-12-20T02:32:21;10.57;;;4.90;;
12445;SDS011;6287;50.984;7.022;2023-12-20T02:34:51;7.43;;;5.38;;
12445;SDS011;6287;50.984;7.022;2023-12-20T02:37:16;9.30;;;5.33;;
12445;SDS011;6287;50.984;7.022;2023-12-20T02:39:42;8.80;;;5.47;;
12445;SDS011;6287;50.984;7.022;2023-12-20T02:42:11;8.73;;;4.80;;
12445;SDS011;6287;50.984;7.022;2023-12-20T02:44:36;15.07;;;4.97;;
12445;SDS011;6287;50.984;7.022;2023-12-20T02:47:04;9.33;;;4.80;;
12445;SDS011;6287;50.984;7.022;2023-12-20T02:49:32;13.53;;;5.40;;
12445;SDS011;6287;50.984;7.022;2023-12-20T02:52:00;10.67;;;4.77;;
12445;SDS011;6287;50.984;7.022;2023-12-20T02:54:26;8.43;;;4.10;;
12445;SDS011;6287;50.984;7.022;2023-12-20T02:56:51;8.17;;;4.17;;
12445;SDS011;6287;50.984;7.022;2023-12-20T02:59:17;7.07;;;3.70;;
12445;SDS011;6287;50.984;7.022;2023-12-20T03:01:45;8.90;;;3.90;;
12445;SDS011;6287;50.984;7.022;2023-12-20T03:04:11;7.80;;;3.27;;
12445;SDS011;6287;50.984;7.022;2023-12-20T03:06:40;6.33;;;3.23;;
12445;SDS011;6287;50.984;7.022;2023-12-20T03:09:05;7.33;;;2.87;;
12445;SDS011;6287;50.984;7.022;2023-12-20T03:11:31;9.50;;;2.80;;
12445;SDS011;6287;50.984;7.022;2023-12-20T03:13:59;9.03;;;2.83;;
12445;SDS011;6287;50.984;7.022;2023-12-20T03:16:27;7.60;;;2.70;;
12445;SDS011;6287;50.984;7.022;2023-12-20T03:18:53;6.37;;;2.30;;
12445;SDS011;6287;50.984;7.022;2023-12-20T03:21:18;6.20;;;1.97;;
12445;SDS011;6287;50.984;7.022;2023-12-20T03:23:44;8.43;;;2.30;;
12445;SDS011;6287;50.984;7.022;2023-12-20T03:26:10;8.30;;;2.40;;
12445;SDS011;6287;50.984;7.022;2023-12-20T03:28:36;4.93;;;2.07;;
12445;SDS011;6287;50.984;7.022;2023-12-20T03:31:02;5.23;;;2.00;;
12445;SDS011;6287;50.984;7.022;2023-12-20T03:33:28;7.03;;;2.13;;
12445;SDS011;6287;50.984;7.022;2023-12-20T03:35:54;5.03;;;1.87;;
12445;SDS011;6287;50.984;7.022;2023-12-20T03:38:20;12.20;;;2.20;;
12445;SDS011;6287;50.984;7.022;2023-12-20T03:40:46;5.73;;;2.40;;
12445;SDS011;6287;50.984;7.022;2023-12-20T03:43:12;7.60;;;2.20;;
12445;SDS011;6287;50.984;7.022;2023-12-20T03:45:40;4.50;;;1.80;;
12445;SDS011;6287;50.984;7.022;2023-12-20T03:48:06;6.87;;;2.30;;
12445;SDS011;6287;50.984;7.022;2023-12-20T03:50:37;5.17;;;1.80;;
12445;SDS011;6287;50.984;7.022;2023-12-20T03:53:05;3.80;;;1.70;;
12445;SDS011;6287;50.984;7.022;2023-12-20T03:55:30;7.37;;;2.10;;
12445;SDS011;6287;50.984;7.022;2023-12-20T03:57:56;3.73;;;1.97;;
12445;SDS011;6287;50.984;7.022;2023-12-20T04:00:24;8.00;;;2.10;;
12445;SDS011;6287;50.984;7.022;2023-12-20T04:02:49;7.20;;;2.10;;
12445;SDS011;6287;50.984;7.022;2023-12-20T04:05:15;6.97;;;2.10;;
12445;SDS011;6287;50.984;7.022;2023-12-20T04:07:41;6.07;;;2.63;;
12445;SDS011;6287;50.984;7.022;2023-12-20T04:10:09;4.33;;;1.70;;
12445;SDS011;6287;50.984;7.022;2023-12-20T04:12:35;4.77;;;2.27;;
12445;SDS011;6287;50.984;7.022;2023-12-20T04:15:00;10.10;;;2.57;;
12445;SDS011;6287;50.984;7.022;2023-12-20T04:17:29;6.57;;;2.03;;
12445;SDS011;6287;50.984;7.022;2023-12-20T04:20:02;7.73;;;2.43;;
12445;SDS011;6287;50.984;7.022;2023-12-20T04:22:36;6.90;;;2.50;;
12445;SDS011;6287;50.984;7.022;2023-12-20T04:25:02;8.97;;;2.50;;
12445;SDS011;6287;50.984;7.022;2023-12-20T04:27:27;6.97;;;2.60;;
12445;SDS011;6287;50.984;7.022;2023-12-20T04:29:53;7.37;;;2.40;;
12445;SDS011;6287;50.984;7.022;2023-12-20T04:32:19;10.23;;;2.53;;
12445;SDS011;6287;50.984;7.022;2023-12-20T04:34:44;8.83;;;2.50;;
12445;SDS011;6287;50.984;7.022;2023-12-20T04:37:10;8.70;;;2.50;;
12445;SDS011;6287;50.984;7.022;2023-12-20T04:39:35;6.63;;;2.47;;
12445;SDS011;6287;50.984;7.022;2023-12-20T04:42:03;11.37;;;3.13;;
12445;SDS011;6287;50.984;7.022;2023-12-20T04:44:29;11.03;;;2.30;;
12445;SDS011;6287;50.984;7.022;2023-12-20T04:46:55;7.73;;;2.47;;
12445;SDS011;6287;50.984;7.022;2023-12-20T04:49:22;9.57;;;2.70;;
12445;SDS011;6287;50.984;7.022;2023-12-20T04:51:48;9.97;;;2.70;;
12445;SDS011;6287;50.984;7.022;2023-12-20T04:54:14;9.67;;;3.10;;
12445;SDS011;6287;50.984;7.022;2023-12-20T04:56:39;5.23;;;2.27;;
12445;SDS011;6287;50.984;7.022;2023-12-20T04:59:05;5.70;;;2.20;;
12445;SDS011;6287;50.984;7.022;2023-12-20T05:01:33;8.37;;;2.53;;
12445;SDS011;6287;50.984;7.022;2023-12-20T05:03:58;5.37;;;2.40;;
12445;SDS011;6287;50.984;7.022;2023-12-20T05:06:24;5.67;;;2.87;;
12445;SDS011;6287;50.984;7.022;2023-12-20T05:08:49;13.17;;;2.80;;
12445;SDS011;6287;50.984;7.022;2023-12-20T05:11:17;11.07;;;2.43;;
12445;SDS011;6287;50.984;7.022;2023-12-20T05:13:43;10.30;;;2.80;;
12445;SDS011;6287;50.984;7.022;2023-12-20T05:16:08;11.63;;;2.80;;
12445;SDS011;6287;50.984;7.022;2023-12-20T05:18:34;5.63;;;2.33;;
12445;SDS011;6287;50.984;7.022;2023-12-20T05:21:02;4.37;;;2.10;;
12445;SDS011;6287;50.984;7.022;2023-12-20T05:23:28;7.53;;;2.60;;
12445;SDS011;6287;50.984;7.022;2023-12-20T05:25:54;6.37;;;2.50;;
12445;SDS011;6287;50.984;7.022;2023-12-20T05:28:19;7.33;;;2.83;;
12445;SDS011;6287;50.984;7.022;2023-12-20T05:30:45;6.57;;;2.67;;
12445;SDS011;6287;50.984;7.022;2023-12-20T05:33:11;5.43;;;2.80;;
12445;SDS011;6287;50.984;7.022;2023-12-20T05:35:36;8.27;;;2.97;;
12445;SDS011;6287;50.984;7.022;2023-12-20T05:38:02;8.37;;;3.10;;
12445;SDS011;6287;50.984;7.022;2023-12-20T05:40:30;6.97;;;2.80;;
12445;SDS011;6287;50.984;7.022;2023-12-20T05:42:57;7.37;;;2.60;;
12445;SDS011;6287;50.984;7.022;2023-12-20T05:45:24;7.37;;;2.97;;
12445;SDS011;6287;50.984;7.022;2023-12-20T05:47:52;4.03;;;2.80;;
12445;SDS011;6287;50.984;7.022;2023-12-20T05:50:20;9.63;;;3.07;;
12445;SDS011;6287;50.984;7.022;2023-12-20T05:52:48;7.97;;;3.03;;
12445;SDS011;6287;50.984;7.022;2023-12-20T05:55:15;5.53;;;2.87;;
12445;SDS011;6287;50.984;7.022;2023-12-20T05:57:43;9.37;;;2.70;;
12445;SDS011;6287;50.984;7.022;2023-12-20T06:00:09;11.67;;;3.33;;
12445;SDS011;6287;50.984;7.022;2023-12-20T06:02:35;7.63;;;2.47;;
12445;SDS011;6287;50.984;7.022;2023-12-20T06:05:02;10.87;;;3.20;;
12445;SDS011;6287;50.984;7.022;2023-12-20T06:07:32;6.33;;;2.67;;
12445;SDS011;6287;50.984;7.022;2023-12-20T06:10:00;8.20;;;2.60;;
12445;SDS011;6287;50.984;7.022;2023-12-20T06:12:26;9.10;;;2.53;;
12445;SDS011;6287;50.984;7.022;2023-12-20T06:14:53;3.27;;;2.63;;
12445;SDS011;6287;50.984;7.022;2023-12-20T06:17:21;6.83;;;2.27;;
12445;SDS011;6287;50.984;7.022;2023-12-20T06:19:47;12.30;;;3.17;;
12445;SDS011;6287;50.984;7.022;2023-12-20T06:22:15;12.47;;;2.93;;
12445;SDS011;6287;50.984;7.022;2023-12-20T06:24:42;7.20;;;2.10;;
12445;SDS011;6287;50.984;7.022;2023-12-20T06:27:08;9.50;;;2.80;;
12445;SDS011;6287;50.984;7.022;2023-12-20T06:29:36;10.13;;;2.60;;
12445;SDS011;6287;50.984;7.022;2023-12-20T06:32:01;9.27;;;2.93;;
12445;SDS011;6287;50.984;7.022;2023-12-20T06:34:30;7.43;;;2.70;;
12445;SDS011;6287;50.984;7.022;2023-12-20T06:36:55;9.17;;;2.47;;
12445;SDS011;6287;50.984;7.022;2023-12-20T06:39:21;8.20;;;2.43;;
12445;SDS011;6287;50.984;7.022;2023-12-20T06:41:46;8.83;;;2.77;;
12445;SDS011;6287;50.984;7.022;2023-12-20T06:44:14;6.77;;;2.27;;
12445;SDS011;6287;50.984;7.022;2023-12-20T06:46:42;7.17;;;2.70;;
12445;SDS011;6287;50.984;7.022;2023-12-20T06:49:08;8.80;;;3.10;;
12445;SDS011;6287;50.984;7.022;2023-12-20T06:51:36;10.63;;;2.50;;
12445;SDS011;6287;50.984;7.022;2023-12-20T06:54:04;8.37;;;2.50;;
12445;SDS011;6287;50.984;7.022;2023-12-20T06:56:30;9.40;;;2.10;;
12445;SDS011;6287;50.984;7.022;2023-12-20T06:58:58;8.17;;;2.43;;
12445;SDS011;6287;50.984;7.022;2023-12-20T07:01:26;8.37;;;3.07;;
12445;SDS011;6287;50.984;7.022;2023-12-20T07:03:54;9.43;;;2.90;;
12445;SDS011;6287;50.984;7.022;2023-12-20T07:06:22;11.30;;;3.60;;
12445;SDS011;6287;50.984;7.022;2023-12-20T07:08:50;4.30;;;2.40;;
12445;SDS011;6287;50.984;7.022;2023-12-20T07:11:16;3.97;;;2.53;;
12445;SDS011;6287;50.984;7.022;2023-12-20T07:13:44;6.47;;;2.30;;
12445;SDS011;6287;50.984;7.022;2023-12-20T07:16:15;7.00;;;2.90;;
12445;SDS011;6287;50.984;7.022;2023-12-20T07:18:40;4.37;;;2.20;;
12445;SDS011;6287;50.984;7.022;2023-12-20T07:21:06;12.17;;;2.50;;
12445;SDS011;6287;50.984;7.022;2023-12-20T07:23:36;7.80;;;2.60;;
12445;SDS011;6287;50.984;7.022;2023-12-20T07:26:04;5.67;;;2.40;;
12445;SDS011;6287;50.984;7.022;2023-12-20T07:28:29;10.87;;;2.97;;
12445;SDS011;6287;50.984;7.022;2023-12-20T07:30:58;9.23;;;2.73;;
12445;SDS011;6287;50.984;7.022;2023-12-20T07:33:28;11.67;;;2.40;;
12445;SDS011;6287;50.984;7.022;2023-12-20T07:35:54;11.00;;;2.63;;
12445;SDS011;6287;50.984;7.022;2023-12-20T07:38:19;5.97;;;2.83;;
12445;SDS011;6287;50.984;7.022;2023-12-20T07:40:45;12.70;;;3.03;;
12445;SDS011;6287;50.984;7.022;2023-12-20T07:43:12;7.27;;;2.60;;
12445;SDS011;6287;50.984;7.022;2023-12-20T07:45:38;6.33;;;2.03;;
12445;SDS011;6287;50.984;7.022;2023-12-20T07:48:06;9.77;;;3.00;;
12445;SDS011;6287;50.984;7.022;2023-12-20T07:50:34;9.07;;;3.07;;
12445;SDS011;6287;50.984;7.022;2023-12-20T07:53:03;11.80;;;3.00;;
12445;SDS011;6287;50.984;7.022;2023-12-20T07:55:28;12.93;;;4.60;;
12445;SDS011;6287;50.984;7.022;2023-12-20T07:57:55;7.50;;;2.77;;
12445;SDS011;6287;50.984;7.022;2023-12-20T08:00:21;5.73;;;2.90;;
12445;SDS011;6287;50.984;7.022;2023-12-20T08:02:46;7.87;;;2.90;;
12445;SDS011;6287;50.984;7.022;2023-12-20T08:05:12;5.90;;;2.80;;
12445;SDS011;6287;50.984;7.022;2023-12-20T08:07:38;6.87;;;2.50;;
12445;SDS011;6287;50.984;7.022;2023-12-20T08:10:06;10.73;;;3.43;;
12445;SDS011;6287;50.984;7.022;2023-12-20T08:12:35;7.03;;;3.13;;
12445;SDS011;6287;50.984;7.022;2023-12-20T08:15:01;7.03;;;2.73;;
12445;SDS011;6287;50.984;7.022;2023-12-20T08:17:29;10.47;;;3.40;;
12445;SDS011;6287;50.984;7.022;2023-12-20T08:19:55;9.80;;;2.97;;
12445;SDS011;6287;50.984;7.022;2023-12-20T08:22:21;11.73;;;3.20;;
12445;SDS011;6287;50.984;7.022;2023-12-20T08:24:48;5.43;;;2.73;;
12445;SDS011;6287;50.984;7.022;2023-12-20T08:27:18;9.63;;;4.00;;
12445;SDS011;6287;50.984;7.022;2023-12-20T08:29:44;8.00;;;2.87;;
12445;SDS011;6287;50.984;7.022;2023-12-20T08:32:14;8.43;;;2.87;;
12445;SDS011;6287;50.984;7.022;2023-12-20T08:34:42;8.23;;;2.80;;
12445;SDS011;6287;50.984;7.022;2023-12-20T08:37:07;9.47;;;3.20;;
12445;SDS011;6287;50.984;7.022;2023-12-20T08:39:35;6.47;;;3.10;;
12445;SDS011;6287;50.984;7.022;2023-12-20T08:42:03;5.93;;;2.60;;
12445;SDS011;6287;50.984;7.022;2023-12-20T08:44:29;4.80;;;2.27;;
12445;SDS011;6287;50.984;7.022;2023-12-20T08:46:55;7.27;;;2.60;;
12445;SDS011;6287;50.984;7.022;2023-12-20T08:49:25;7.27;;;2.87;;
12445;SDS011;6287;50.984;7.022;2023-12-20T08:51:50;10.07;;;3.40;;
12445;SDS011;6287;50.984;7.022;2023-12-20T08:54:16;10.77;;;2.73;;
12445;SDS011;6287;50.984;7.022;2023-12-20T08:56:44;6.60;;;2.67;;
12445;SDS011;6287;50.984;7.022;2023-12-20T08:59:11;5.80;;;2.50;;
12445;SDS011;6287;50.984;7.022;2023-12-20T09:01:37;9.70;;;2.93;;
12445;SDS011;6287;50.984;7.022;2023-12-20T09:04:02;8.03;;;2.60;;
12445;SDS011;6287;50.984;7.022;2023-12-20T09:06:28;10.00;;;2.63;;
12445;SDS011;6287;50.984;7.022;2023-12-20T09:08:56;8.73;;;3.33;;
12445;SDS011;6287;50.984;7.022;2023-12-20T09:11:21;10.17;;;3.50;;
12445;SDS011;6287;50.984;7.022;2023-12-20T09:13:47;9.13;;;2.97;;
12445;SDS011;6287;50.984;7.022;2023-12-20T09:16:13;8.37;;;3.00;;
12445;SDS011;6287;50.984;7.022;2023-12-20T09:18:40;5.30;;;2.30;;
12445;SDS011;6287;50.984;7.022;2023-12-20T09:21:06;6.70;;;2.90;;
12445;SDS011;6287;50.984;7.022;2023-12-20T09:23:34;9.67;;;2.80;;
12445;SDS011;6287;50.984;7.022;2023-12-20T09:26:04;7.23;;;2.50;;
12445;SDS011;6287;50.984;7.022;2023-12-20T09:28:29;9.67;;;2.87;;
12445;SDS011;6287;50.984;7.022;2023-12-20T09:31:00;13.33;;;2.87;;
12445;SDS011;6287;50.984;7.022;2023-12-20T09:33:25;10.13;;;2.53;;
12445;SDS011;6287;50.984;7.022;2023-12-20T09:35:51;9.47;;;2.80;;
12445;SDS011;6287;50.984;7.022;2023-12-20T09:38:17;5.37;;;2.60;;
12445;SDS011;6287;50.984;7.022;2023-12-20T09:40:42;5.13;;;2.30;;
12445;SDS011;6287;50.984;7.022;2023-12-20T09:43:10;7.50;;;2.90;;
12445;SDS011;6287;50.984;7.022;2023-12-20T09:45:38;8.23;;;2.50;;
12445;SDS011;6287;50.984;7.022;2023-12-20T09:48:08;5.33;;;2.17;;
12445;SDS011;6287;50.984;7.022;2023-12-20T09:50:39;7.43;;;3.20;;
12445;SDS011;6287;50.984;7.022;2023-12-20T09:53:05;4.97;;;2.20;;
12445;SDS011;6287;50.984;7.022;2023-12-20T09:55:34;7.13;;;2.92;;
12445;SDS011;6287;50.984;7.022;2023-12-20T09:58:03;6.37;;;3.07;;
12445;SDS011;6287;50.984;7.022;2023-12-20T10:00:33;10.07;;;2.40;;
12445;SDS011;6287;50.984;7.022;2023-12-20T10:03:02;5.37;;;2.30;;
12445;SDS011;6287;50.984;7.022;2023-12-20T10:05:33;9.30;;;2.60;;
12445;SDS011;6287;50.984;7.022;2023-12-20T10:07:59;8.27;;;2.00;;
12445;SDS011;6287;50.984;7.022;2023-12-20T10:10:28;6.13;;;2.30;;
12445;SDS011;6287;50.984;7.022;2023-12-20T10:15:32;7.17;;;2.57;;
12445;SDS011;6287;50.984;7.022;2023-12-20T10:17:59;7.60;;;3.43;;
12445;SDS011;6287;50.984;7.022;2023-12-20T10:20:31;7.40;;;2.20;;
12445;SDS011;6287;50.984;7.022;2023-12-20T10:23:00;4.43;;;2.03;;
12445;SDS011;6287;50.984;7.022;2023-12-20T10:25:27;9.10;;;2.47;;
12445;SDS011;6287;50.984;7.022;2023-12-20T10:28:13;7.03;;;2.07;;
12445;SDS011;6287;50.984;7.022;2023-12-20T10:30:40;5.87;;;2.57;;
12445;SDS011;6287;50.984;7.022;2023-12-20T10:33:06;8.03;;;2.40;;
12445;SDS011;6287;50.984;7.022;2023-12-20T10:35:43;7.90;;;2.57;;
12445;SDS011;6287;50.984;7.022;2023-12-20T10:38:26;7.37;;;2.67;;
12445;SDS011;6287;50.984;7.022;2023-12-20T10:40:54;7.50;;;2.60;;
12445;SDS011;6287;50.984;7.022;2023-12-20T10:43:27;5.97;;;2.30;;
12445;SDS011;6287;50.984;7.022;2023-12-20T10:45:54;7.87;;;2.27;;
12445;SDS011;6287;50.984;7.022;2023-12-20T10:48:22;12.27;;;2.63;;
12445;SDS011;6287;50.984;7.022;2023-12-20T10:50:54;6.63;;;2.70;;
12445;SDS011;6287;50.984;7.022;2023-12-20T10:53:23;10.60;;;3.13;;
12445;SDS011;6287;50.984;7.022;2023-12-20T10:55:50;7.20;;;2.47;;
12445;SDS011;6287;50.984;7.022;2023-12-20T10:58:20;5.20;;;2.37;;
12445;SDS011;6287;50.984;7.022;2023-12-20T11:00:49;8.27;;;2.60;;
12445;SDS011;6287;50.984;7.022;2023-12-20T11:03:25;12.50;;;3.10;;
12445;SDS011;6287;50.984;7.022;2023-12-20T11:06:02;6.87;;;2.10;;
12445;SDS011;6287;50.984;7.022;2023-12-20T11:11:45;4.93;;;2.70;;
12445;SDS011;6287;50.984;7.022;2023-12-20T11:14:50;5.93;;;2.23;;
12445;SDS011;6287;50.984;7.022;2023-12-20T11:17:17;5.23;;;2.30;;
12445;SDS011;6287;50.984;7.022;2023-12-20T11:22:32;9.53;;;3.37;;
12445;SDS011;6287;50.984;7.022;2023-12-20T11:25:03;10.40;;;2.53;;
12445;SDS011;6287;50.984;7.022;2023-12-20T11:27:43;6.40;;;2.20;;
12445;SDS011;6287;50.984;7.022;2023-12-20T11:30:09;8.27;;;2.47;;
12445;SDS011;6287;50.984;7.022;2023-12-20T11:32:38;8.13;;;2.10;;
12445;SDS011;6287;50.984;7.022;2023-12-20T11:37:36;4.43;;;2.00;;
12445;SDS011;6287;50.984;7.022;2023-12-20T11:40:08;6.60;;;2.47;;
12445;SDS011;6287;50.984;7.022;2023-12-20T11:42:44;8.83;;;2.47;;
12445;SDS011;6287;50.984;7.022;2023-12-20T11:47:42;10.30;;;2.33;;
12445;SDS011;6287;50.984;7.022;2023-12-20T11:50:14;4.83;;;2.50;;
12445;SDS011;6287;50.984;7.022;2023-12-20T11:52:41;8.73;;;2.13;;
12445;SDS011;6287;50.984;7.022;2023-12-20T11:55:14;10.80;;;2.20;;
12445;SDS011;6287;50.984;7.022;2023-12-20T11:57:40;7.83;;;3.93;;
12445;SDS011;6287;50.984;7.022;2023-12-20T12:00:07;7.63;;;2.63;;
12445;SDS011;6287;50.984;7.022;2023-12-20T12:02:34;6.03;;;2.17;;
12445;SDS011;6287;50.984;7.022;2023-12-20T12:05:00;5.13;;;2.17;;
12445;SDS011;6287;50.984;7.022;2023-12-20T12:07:26;4.33;;;2.40;;
12445;SDS011;6287;50.984;7.022;2023-12-20T12:09:51;9.00;;;2.13;;
12445;SDS011;6287;50.984;7.022;2023-12-20T12:12:17;5.60;;;2.03;;
12445;SDS011;6287;50.984;7.022;2023-12-20T12:14:44;5.13;;;2.10;;
12445;SDS011;6287;50.984;7.022;2023-12-20T12:17:13;7.17;;;2.17;;
12445;SDS011;6287;50.984;7.022;2023-12-20T12:19:42;5.73;;;2.53;;
12445;SDS011;6287;50.984;7.022;2023-12-20T12:24:42;10.43;;;2.63;;
12445;SDS011;6287;50.984;7.022;2023-12-20T12:27:09;6.77;;;2.57;;
12445;SDS011;6287;50.984;7.022;2023-12-20T12:29:38;5.70;;;2.40;;
12445;SDS011;6287;50.984;7.022;2023-12-20T12:32:08;9.40;;;2.27;;
12445;SDS011;6287;50.984;7.022;2023-12-20T12:34:34;6.13;;;2.70;;
12445;SDS011;6287;50.984;7.022;2023-12-20T12:37:01;11.93;;;3.33;;
12445;SDS011;6287;50.984;7.022;2023-12-20T12:39:31;5.50;;;2.63;;
12445;SDS011;6287;50.984;7.022;2023-12-20T12:41:59;5.23;;;2.20;;
12445;SDS011;6287;50.984;7.022;2023-12-20T12:44:26;8.93;;;2.60;;
12445;SDS011;6287;50.984;7.022;2023-12-20T12:46:54;5.17;;;2.30;;
12445;SDS011;6287;50.984;7.022;2023-12-20T12:49:20;6.17;;;2.67;;
12445;SDS011;6287;50.984;7.022;2023-12-20T12:51:49;6.63;;;2.50;;
12445;SDS011;6287;50.984;7.022;2023-12-20T12:54:14;7.67;;;2.47;;
12445;SDS011;6287;50.984;7.022;2023-12-20T12:56:42;6.50;;;2.43;;
12445;SDS011;6287;50.984;7.022;2023-12-20T12:59:08;4.93;;;2.53;;
12445;SDS011;6287;50.984;7.022;2023-12-20T13:01:34;6.73;;;2.33;;
12445;SDS011;6287;50.984;7.022;2023-12-20T13:03:59;6.30;;;2.87;;
12445;SDS011;6287;50.984;7.022;2023-12-20T13:06:28;8.37;;;2.73;;
12445;SDS011;6287;50.984;7.022;2023-12-20T13:08:53;6.67;;;2.57;;
12445;SDS011;6287;50.984;7.022;2023-12-20T13:11:24;12.27;;;3.23;;
12445;SDS011;6287;50.984;7.022;2023-12-20T13:13:52;6.87;;;2.47;;
12445;SDS011;6287;50.984;7.022;2023-12-20T13:16:20;7.30;;;3.27;;
12445;SDS011;6287;50.984;7.022;2023-12-20T13:18:46;7.17;;;2.73;;
12445;SDS011;6287;50.984;7.022;2023-12-20T13:21:16;5.80;;;2.60;;
12445;SDS011;6287;50.984;7.022;2023-12-20T13:23:42;7.73;;;2.80;;
12445;SDS011;6287;50.984;7.022;2023-12-20T13:26:08;9.57;;;2.90;;
12445;SDS011;6287;50.984;7.022;2023-12-20T13:28:34;7.40;;;2.90;;
12445;SDS011;6287;50.984;7.022;2023-12-20T13:31:04;3.20;;;2.33;;
12445;SDS011;6287;50.984;7.022;2023-12-20T13:33:30;9.40;;;2.20;;
12445;SDS011;6287;50.984;7.022;2023-12-20T13:35:58;5.00;;;2.80;;
12445;SDS011;6287;50.984;7.022;2023-12-20T13:38:28;5.43;;;2.47;;
12445;SDS011;6287;50.984;7.022;2023-12-20T13:40:54;7.93;;;2.93;;
12445;SDS011;6287;50.984;7.022;2023-12-20T13:43:23;6.37;;;2.60;;
12445;SDS011;6287;50.984;7.022;2023-12-20T13:45:49;7.57;;;2.77;;
12445;SDS011;6287;50.984;7.022;2023-12-20T13:48:17;10.23;;;3.03;;
12445;SDS011;6287;50.984;7.022;2023-12-20T13:50:45;5.53;;;2.53;;
12445;SDS011;6287;50.984;7.022;2023-12-20T13:53:13;7.13;;;2.50;;
12445;SDS011;6287;50.984;7.022;2023-12-20T13:55:41;5.90;;;2.70;;
12445;SDS011;6287;50.984;7.022;2023-12-20T13:58:07;6.20;;;2.20;;
12445;SDS011;6287;50.984;7.022;2023-12-20T14:00:40;4.97;;;2.37;;
12445;SDS011;6287;50.984;7.022;2023-12-20T14:03:06;8.23;;;2.37;;
12445;SDS011;6287;50.984;7.022;2023-12-20T14:05:35;6.33;;;2.53;;
12445;SDS011;6287;50.984;7.022;2023-12-20T14:08:03;5.30;;;2.13;;
12445;SDS011;6287;50.984;7.022;2023-12-20T14:10:28;6.07;;;2.50;;
12445;SDS011;6287;50.984;7.022;2023-12-20T14:12:54;9.27;;;2.10;;
12445;SDS011;6287;50.984;7.022;2023-12-20T14:15:20;7.77;;;2.40;;
12445;SDS011;6287;50.984;7.022;2023-12-20T14:17:46;5.87;;;2.93;;
12445;SDS011;6287;50.984;7.022;2023-12-20T14:20:11;4.97;;;2.53;;
12445;SDS011;6287;50.984;7.022;2023-12-20T14:22:41;6.93;;;2.50;;
12445;SDS011;6287;50.984;7.022;2023-12-20T14:25:13;11.13;;;2.37;;
12445;SDS011;6287;50.984;7.022;2023-12-20T14:27:44;5.43;;;2.53;;
12445;SDS011;6287;50.984;7.022;2023-12-20T14:30:12;4.40;;;2.30;;
12445;SDS011;6287;50.984;7.022;2023-12-20T14:32:41;7.47;;;2.43;;
12445;SDS011;6287;50.984;7.022;2023-12-20T14:35:07;7.27;;;2.73;;
12445;SDS011;6287;50.984;7.022;2023-12-20T14:37:37;7.87;;;2.40;;
12445;SDS011;6287;50.984;7.022;2023-12-20T14:40:05;3.83;;;2.33;;
12445;SDS011;6287;50.984;7.022;2023-12-20T14:42:35;5.87;;;2.37;;
12445;SDS011;6287;50.984;7.022;2023-12-20T14:45:01;4.57;;;2.40;;
12445;SDS011;6287;50.984;7.022;2023-12-20T14:47:29;6.50;;;2.33;;
12445;SDS011;6287;50.984;7.022;2023-12-20T14:49:54;6.03;;;2.70;;
12445;SDS011;6287;50.984;7.022;2023-12-20T14:52:24;5.70;;;2.30;;
12445;SDS011;6287;50.984;7.022;2023-12-20T14:54:49;5.57;;;2.73;;
12445;SDS011;6287;50.984;7.022;2023-12-20T14:57:15;5.07;;;2.67;;
12445;SDS011;6287;50.984;7.022;2023-12-20T14:59:40;7.27;;;2.03;;
12445;SDS011;6287;50.984;7.022;2023-12-20T15:02:08;8.97;;;2.70;;
12445;SDS011;6287;50.984;7.022;2023-12-20T15:04:36;5.43;;;3.20;;
12445;SDS011;6287;50.984;7.022;2023-12-20T15:07:02;9.60;;;2.93;;
12445;SDS011;6287;50.984;7.022;2023-12-20T15:09:30;6.20;;;2.90;;
12445;SDS011;6287;50.984;7.022;2023-12-20T15:11:58;5.43;;;2.30;;
12445;SDS011;6287;50.984;7.022;2023-12-20T15:14:23;8.90;;;2.90;;